sensor_id;sensor_type;location;lat;lon;timestamp;temperature;humidity
18141;DHT22;9196;49.194;12.526;2023-09-18T00:00:15;17.00;99.90
18141;DHT22;9196;49.194;12.526;2023-09-18T00:02:42;17.00;99.90
18141;DHT22;9196;49.194;12.526;2023-09-18T00:05:09;16.80;99.90
18141;DHT22;9196;49.194;12.526;2023-09-18T00:07:36;16.70;99.90
18141;DHT22;9196;49.194;12.526;2023-09-18T00:10:03;16.70;99.90
18141;DHT22;9196;49.194;12.526;2023-09-18T00:12:32;16.70;99.90
18141;DHT22;9196;49.194;12.526;2023-09-18T00:14:58;16.70;99.90
18141;DHT22;9196;49.194;12.526;2023-09-18T00:17:25;16.80;99.90
18141;DHT22;9196;49.194;12.526;2023-09-18T00:19:52;16.70;99.90
18141;DHT22;9196;49.194;12.526;2023-09-18T00:22:19;16.80;99.90
18141;DHT22;9196;49.194;12.526;2023-09-18T00:24:47;16.70;99.90
18141;DHT22;9196;49.194;12.526;2023-09-18T00:27:13;16.60;99.90
18141;DHT22;9196;49.194;12.526;2023-09-18T00:29:42;16.50;99.90
18141;DHT22;9196;49.194;12.526;2023-09-18T00:32:09;16.50;99.90
18141;DHT22;9196;49.194;12.526;2023-09-18T00:34:36;16.50;99.90
18141;DHT22;9196;49.194;12.526;2023-09-18T00:37:03;16.60;99.90
18141;DHT22;9196;49.194;12.526;2023-09-18T00:39:30;16.60;99.90
18141;DHT22;9196;49.194;12.526;2023-09-18T00:41:56;16.60;99.90
18141;DHT22;9196;49.194;12.526;2023-09-18T00:44:24;16.60;99.90
18141;DHT22;9196;49.194;12.526;2023-09-18T00:46:53;16.40;99.90
18141;DHT22;9196;49.194;12.526;2023-09-18T00:49:22;16.30;99.90
18141;DHT22;9196;49.194;12.526;2023-09-18T00:51:50;16.10;99.90
18141;DHT22;9196;49.194;12.526;2023-09-18T00:54:18;16.10;99.90
18141;DHT22;9196;49.194;12.526;2023-09-18T00:56:46;16.20;99.90
18141;DHT22;9196;49.194;12.526;2023-09-18T00:59:13;16.30;99.90
18141;DHT22;9196;49.194;12.526;2023-09-18T01:01:40;16.30;99.90
18141;DHT22;9196;49.194;12.526;2023-09-18T01:04:10;16.30;99.90
18141;DHT22;9196;49.194;12.526;2023-09-18T01:06:38;16.30;99.90
18141;DHT22;9196;49.194;12.526;2023-09-18T01:09:05;16.30;99.90
18141;DHT22;9196;49.194;12.526;2023-09-18T01:11:43;16.30;99.90
18141;DHT22;9196;49.194;12.526;2023-09-18T01:14:20;16.20;99.90
18141;DHT22;9196;49.194;12.526;2023-09-18T01:16:53;16.20;99.90
18141;DHT22;9196;49.194;12.526;2023-09-18T01:19:39;16.20;99.90
18141;DHT22;9196;49.194;12.526;2023-09-18T01:22:07;16.20;99.90
18141;DHT22;9196;49.194;12.526;2023-09-18T01:24:37;16.20;99.90
18141;DHT22;9196;49.194;12.526;2023-09-18T01:27:06;16.10;99.90
18141;DHT22;9196;49.194;12.526;2023-09-18T01:29:33;16.10;99.90
18141;DHT22;9196;49.194;12.526;2023-09-18T01:32:00;16.00;99.90
18141;DHT22;9196;49.194;12.526;2023-09-18T01:34:30;16.00;99.90
18141;DHT22;9196;49.194;12.526;2023-09-18T01:36:59;16.00;99.90
18141;DHT22;9196;49.194;12.526;2023-09-18T01:39:27;16.00;99.90
18141;DHT22;9196;49.194;12.526;2023-09-18T01:41:58;16.00;99.90
18141;DHT22;9196;49.194;12.526;2023-09-18T01:44:25;15.90;99.90
18141;DHT22;9196;49.194;12.526;2023-09-18T01:46:52;15.90;99.90
18141;DHT22;9196;49.194;12.526;2023-09-18T01:49:27;15.90;99.90
18141;DHT22;9196;49.194;12.526;2023-09-18T01:51:54;15.80;99.90
18141;DHT22;9196;49.194;12.526;2023-09-18T01:54:20;15.90;99.90
18141;DHT22;9196;49.194;12.526;2023-09-18T01:56:47;15.80;99.90
18141;DHT22;9196;49.194;12.526;2023-09-18T01:59:16;15.80;99.90
18141;DHT22;9196;49.194;12.526;2023-09-18T02:01:43;15.90;99.90
18141;DHT22;9196;49.194;12.526;2023-09-18T02:04:10;15.80;99.90
18141;DHT22;9196;49.194;12.526;2023-09-18T02:06:37;15.80;99.90
18141;DHT22;9196;49.194;12.526;2023-09-18T02:09:04;15.80;99.90
18141;DHT22;9196;49.194;12.526;2023-09-18T02:11:30;15.70;99.90
18141;DHT22;9196;49.194;12.526;2023-09-18T02:13:57;15.80;99.90
18141;DHT22;9196;49.194;12.526;2023-09-18T02:16:25;15.80;99.90
18141;DHT22;9196;49.194;12.526;2023-09-18T02:18:54;15.80;99.90
18141;DHT22;9196;49.194;12.526;2023-09-18T02:21:22;15.70;99.90
18141;DHT22;9196;49.194;12.526;2023-09-18T02:23:49;15.70;99.90
18141;DHT22;9196;49.194;12.526;2023-09-18T02:26:16;15.70;99.90
18141;DHT22;9196;49.194;12.526;2023-09-18T02:28:43;15.60;99.90
18141;DHT22;9196;49.194;12.526;2023-09-18T02:31:10;15.60;99.90
18141;DHT22;9196;49.194;12.526;2023-09-18T02:33:39;15.70;99.90
18141;DHT22;9196;49.194;12.526;2023-09-18T02:36:06;15.60;99.90
18141;DHT22;9196;49.194;12.526;2023-09-18T02:38:33;15.60;99.90
18141;DHT22;9196;49.194;12.526;2023-09-18T02:41:00;15.50;99.90
18141;DHT22;9196;49.194;12.526;2023-09-18T02:43:27;15.50;99.90
18141;DHT22;9196;49.194;12.526;2023-09-18T02:45:54;15.60;99.90
18141;DHT22;9196;49.194;12.526;2023-09-18T02:48:21;15.50;99.90
18141;DHT22;9196;49.194;12.526;2023-09-18T02:50:49;15.60;99.90
18141;DHT22;9196;49.194;12.526;2023-09-18T02:53:18;15.50;99.90
18141;DHT22;9196;49.194;12.526;2023-09-18T02:55:45;15.40;99.90
18141;DHT22;9196;49.194;12.526;2023-09-18T02:58:12;15.50;99.90
18141;DHT22;9196;49.194;12.526;2023-09-18T03:00:41;15.50;99.90
18141;DHT22;9196;49.194;12.526;2023-09-18T03:03:09;15.50;99.90
18141;DHT22;9196;49.194;12.526;2023-09-18T03:05:35;15.40;99.90
18141;DHT22;9196;49.194;12.526;2023-09-18T03:08:04;15.50;99.90
18141;DHT22;9196;49.194;12.526;2023-09-18T03:10:33;15.50;99.90
18141;DHT22;9196;49.194;12.526;2023-09-18T03:13:00;15.40;99.90
18141;DHT22;9196;49.194;12.526;2023-09-18T03:15:27;15.40;99.90
18141;DHT22;9196;49.194;12.526;2023-09-18T03:17:54;15.40;99.90
18141;DHT22;9196;49.194;12.526;2023-09-18T03:20:22;15.30;99.90
18141;DHT22;9196;49.194;12.526;2023-09-18T03:22:50;15.30;99.90
18141;DHT22;9196;49.194;12.526;2023-09-18T03:25:18;15.30;99.90
18141;DHT22;9196;49.194;12.526;2023-09-18T03:27:45;15.30;99.90
18141;DHT22;9196;49.194;12.526;2023-09-18T03:30:12;15.30;99.90
18141;DHT22;9196;49.194;12.526;2023-09-18T03:32:41;15.30;99.90
18141;DHT22;9196;49.194;12.526;2023-09-18T03:35:08;15.30;99.90
18141;DHT22;9196;49.194;12.526;2023-09-18T03:37:35;15.40;99.90
18141;DHT22;9196;49.194;12.526;2023-09-18T03:40:02;15.40;99.90
18141;DHT22;9196;49.194;12.526;2023-09-18T03:42:30;15.40;99.90
18141;DHT22;9196;49.194;12.526;2023-09-18T03:44:57;15.40;99.90
18141;DHT22;9196;49.194;12.526;2023-09-18T03:47:24;15.40;99.90
18141;DHT22;9196;49.194;12.526;2023-09-18T03:49:51;15.30;99.90
18141;DHT22;9196;49.194;12.526;2023-09-18T03:52:17;15.30;99.90
18141;DHT22;9196;49.194;12.526;2023-09-18T03:54:44;15.40;99.90
18141;DHT22;9196;49.194;12.526;2023-09-18T03:57:11;15.30;99.90
18141;DHT22;9196;49.194;12.526;2023-09-18T03:59:39;15.40;99.90
18141;DHT22;9196;49.194;12.526;2023-09-18T04:02:06;15.30;99.90
18141;DHT22;9196;49.194;12.526;2023-09-18T04:04:33;15.30;99.90
18141;DHT22;9196;49.194;12.526;2023-09-18T04:07:00;15.30;99.90
18141;DHT22;9196;49.194;12.526;2023-09-18T04:09:31;15.20;99.90
18141;DHT22;9196;49.194;12.526;2023-09-18T04:12:00;15.20;99.90
18141;DHT22;9196;49.194;12.526;2023-09-18T04:14:27;15.30;99.90
18141;DHT22;9196;49.194;12.526;2023-09-18T04:16:55;15.20;99.90
18141;DHT22;9196;49.194;12.526;2023-09-18T04:19:21;15.20;99.90
18141;DHT22;9196;49.194;12.526;2023-09-18T04:21:48;15.10;99.90
18141;DHT22;9196;49.194;12.526;2023-09-18T04:24:15;15.20;99.90
18141;DHT22;9196;49.194;12.526;2023-09-18T04:26:42;15.20;99.90
18141;DHT22;9196;49.194;12.526;2023-09-18T04:29:09;15.20;99.90
18141;DHT22;9196;49.194;12.526;2023-09-18T04:31:35;15.20;99.90
18141;DHT22;9196;49.194;12.526;2023-09-18T04:34:04;15.10;99.90
18141;DHT22;9196;49.194;12.526;2023-09-18T04:36:32;15.00;99.90
18141;DHT22;9196;49.194;12.526;2023-09-18T04:38:58;15.00;99.90
18141;DHT22;9196;49.194;12.526;2023-09-18T04:41:25;14.90;99.90
18141;DHT22;9196;49.194;12.526;2023-09-18T04:43:52;14.90;99.90
18141;DHT22;9196;49.194;12.526;2023-09-18T04:46:19;15.00;99.90
18141;DHT22;9196;49.194;12.526;2023-09-18T04:48:46;15.00;99.90
18141;DHT22;9196;49.194;12.526;2023-09-18T04:51:14;14.90;99.90
18141;DHT22;9196;49.194;12.526;2023-09-18T04:53:41;14.90;99.90
18141;DHT22;9196;49.194;12.526;2023-09-18T04:56:08;14.90;99.90
18141;DHT22;9196;49.194;12.526;2023-09-18T04:58:35;14.90;99.90
18141;DHT22;9196;49.194;12.526;2023-09-18T05:01:03;14.90;99.90
18141;DHT22;9196;49.194;12.526;2023-09-18T05:03:30;14.90;99.90
18141;DHT22;9196;49.194;12.526;2023-09-18T05:05:57;14.90;99.90
18141;DHT22;9196;49.194;12.526;2023-09-18T05:08:25;14.90;99.90
18141;DHT22;9196;49.194;12.526;2023-09-18T05:10:52;14.90;99.90
18141;DHT22;9196;49.194;12.526;2023-09-18T05:13:18;14.80;99.90
18141;DHT22;9196;49.194;12.526;2023-09-18T05:15:45;14.80;99.90
18141;DHT22;9196;49.194;12.526;2023-09-18T05:18:12;14.90;99.90
18141;DHT22;9196;49.194;12.526;2023-09-18T05:20:40;15.10;99.90
18141;DHT22;9196;49.194;12.526;2023-09-18T05:23:06;15.20;99.90
18141;DHT22;9196;49.194;12.526;2023-09-18T05:25:35;15.30;99.90
18141;DHT22;9196;49.194;12.526;2023-09-18T05:28:04;15.20;99.90
18141;DHT22;9196;49.194;12.526;2023-09-18T05:30:32;15.20;99.90
18141;DHT22;9196;49.194;12.526;2023-09-18T05:33:01;15.30;99.90
18141;DHT22;9196;49.194;12.526;2023-09-18T05:35:30;15.40;99.90
18141;DHT22;9196;49.194;12.526;2023-09-18T05:37:57;15.50;99.90
18141;DHT22;9196;49.194;12.526;2023-09-18T05:40:25;15.70;99.90
18141;DHT22;9196;49.194;12.526;2023-09-18T05:42:54;15.70;99.90
18141;DHT22;9196;49.194;12.526;2023-09-18T05:45:21;15.80;99.90
18141;DHT22;9196;49.194;12.526;2023-09-18T05:47:48;15.90;99.90
18141;DHT22;9196;49.194;12.526;2023-09-18T05:50:15;16.00;99.90
18141;DHT22;9196;49.194;12.526;2023-09-18T05:52:43;15.90;99.90
18141;DHT22;9196;49.194;12.526;2023-09-18T05:55:10;15.90;99.90
18141;DHT22;9196;49.194;12.526;2023-09-18T05:57:38;15.90;99.90
18141;DHT22;9196;49.194;12.526;2023-09-18T06:00:07;16.00;99.90
18141;DHT22;9196;49.194;12.526;2023-09-18T06:02:38;16.00;99.90
18141;DHT22;9196;49.194;12.526;2023-09-18T06:05:06;16.10;99.90
18141;DHT22;9196;49.194;12.526;2023-09-18T06:07:36;16.20;99.90
18141;DHT22;9196;49.194;12.526;2023-09-18T06:10:04;16.30;99.90
18141;DHT22;9196;49.194;12.526;2023-09-18T06:12:31;16.30;99.90
18141;DHT22;9196;49.194;12.526;2023-09-18T06:14:58;16.50;99.90
18141;DHT22;9196;49.194;12.526;2023-09-18T06:17:26;16.60;99.90
18141;DHT22;9196;49.194;12.526;2023-09-18T06:19:53;16.70;99.90
18141;DHT22;9196;49.194;12.526;2023-09-18T06:22:21;16.70;99.90
18141;DHT22;9196;49.194;12.526;2023-09-18T06:24:47;16.80;99.90
18141;DHT22;9196;49.194;12.526;2023-09-18T06:27:14;16.90;99.90
18141;DHT22;9196;49.194;12.526;2023-09-18T06:29:41;16.80;99.90
18141;DHT22;9196;49.194;12.526;2023-09-18T06:32:08;16.80;99.90
18141;DHT22;9196;49.194;12.526;2023-09-18T06:34:37;16.80;99.90
18141;DHT22;9196;49.194;12.526;2023-09-18T06:37:03;16.70;99.90
18141;DHT22;9196;49.194;12.526;2023-09-18T06:39:33;16.70;99.90
18141;DHT22;9196;49.194;12.526;2023-09-18T06:42:00;16.80;99.90
18141;DHT22;9196;49.194;12.526;2023-09-18T06:44:27;16.80;99.90
18141;DHT22;9196;49.194;12.526;2023-09-18T06:46:53;16.90;99.90
18141;DHT22;9196;49.194;12.526;2023-09-18T06:49:20;17.00;99.90
18141;DHT22;9196;49.194;12.526;2023-09-18T06:51:51;17.20;99.90
18141;DHT22;9196;49.194;12.526;2023-09-18T06:54:18;17.30;99.90
18141;DHT22;9196;49.194;12.526;2023-09-18T06:56:45;17.50;99.90
18141;DHT22;9196;49.194;12.526;2023-09-18T06:59:11;17.70;99.90
18141;DHT22;9196;49.194;12.526;2023-09-18T07:01:39;17.80;99.90
18141;DHT22;9196;49.194;12.526;2023-09-18T07:04:06;17.90;99.90
18141;DHT22;9196;49.194;12.526;2023-09-18T07:06:33;18.10;99.90
18141;DHT22;9196;49.194;12.526;2023-09-18T07:09:01;18.20;99.90
18141;DHT22;9196;49.194;12.526;2023-09-18T07:11:30;18.40;99.90
18141;DHT22;9196;49.194;12.526;2023-09-18T07:13:57;18.60;99.90
18141;DHT22;9196;49.194;12.526;2023-09-18T07:16:24;18.80;99.90
18141;DHT22;9196;49.194;12.526;2023-09-18T07:18:51;18.90;99.90
18141;DHT22;9196;49.194;12.526;2023-09-18T07:21:17;19.00;99.90
18141;DHT22;9196;49.194;12.526;2023-09-18T07:23:46;19.00;99.90
18141;DHT22;9196;49.194;12.526;2023-09-18T07:26:15;19.00;99.90
18141;DHT22;9196;49.194;12.526;2023-09-18T07:28:42;18.90;99.90
18141;DHT22;9196;49.194;12.526;2023-09-18T07:31:11;18.90;99.90
18141;DHT22;9196;49.194;12.526;2023-09-18T07:33:39;18.90;99.90
18141;DHT22;9196;49.194;12.526;2023-09-18T07:36:06;19.00;99.90
18141;DHT22;9196;49.194;12.526;2023-09-18T07:38:35;19.10;99.90
18141;DHT22;9196;49.194;12.526;2023-09-18T07:41:02;19.30;99.90
18141;DHT22;9196;49.194;12.526;2023-09-18T07:43:30;19.40;99.90
18141;DHT22;9196;49.194;12.526;2023-09-18T07:45:57;19.40;99.90
18141;DHT22;9196;49.194;12.526;2023-09-18T07:48:25;19.40;99.90
18141;DHT22;9196;49.194;12.526;2023-09-18T07:50:52;19.30;99.90
18141;DHT22;9196;49.194;12.526;2023-09-18T07:53:31;19.40;99.90
18141;DHT22;9196;49.194;12.526;2023-09-18T07:55:58;19.40;99.90
18141;DHT22;9196;49.194;12.526;2023-09-18T07:58:27;19.40;99.90
18141;DHT22;9196;49.194;12.526;2023-09-18T08:00:56;19.40;99.90
18141;DHT22;9196;49.194;12.526;2023-09-18T08:03:23;19.40;99.90
18141;DHT22;9196;49.194;12.526;2023-09-18T08:05:51;19.50;99.90
18141;DHT22;9196;49.194;12.526;2023-09-18T08:08:20;19.70;99.90
18141;DHT22;9196;49.194;12.526;2023-09-18T08:10:47;19.90;99.90
18141;DHT22;9196;49.194;12.526;2023-09-18T08:13:14;20.00;99.90
18141;DHT22;9196;49.194;12.526;2023-09-18T08:15:41;20.20;99.90
18141;DHT22;9196;49.194;12.526;2023-09-18T08:18:10;20.30;99.90
18141;DHT22;9196;49.194;12.526;2023-09-18T08:20:40;20.50;99.90
18141;DHT22;9196;49.194;12.526;2023-09-18T08:23:08;20.60;99.90
18141;DHT22;9196;49.194;12.526;2023-09-18T08:25:35;20.80;99.90
18141;DHT22;9196;49.194;12.526;2023-09-18T08:28:02;20.90;99.90
18141;DHT22;9196;49.194;12.526;2023-09-18T08:30:30;21.10;99.90
18141;DHT22;9196;49.194;12.526;2023-09-18T08:32:57;21.20;99.90
18141;DHT22;9196;49.194;12.526;2023-09-18T08:35:25;21.40;99.90
18141;DHT22;9196;49.194;12.526;2023-09-18T08:37:55;21.40;99.90
18141;DHT22;9196;49.194;12.526;2023-09-18T08:40:22;21.40;99.90
18141;DHT22;9196;49.194;12.526;2023-09-18T08:42:52;21.50;99.90
18141;DHT22;9196;49.194;12.526;2023-09-18T08:45:23;21.50;99.90
18141;DHT22;9196;49.194;12.526;2023-09-18T08:47:52;21.60;99.90
18141;DHT22;9196;49.194;12.526;2023-09-18T08:50:21;21.80;99.90
18141;DHT22;9196;49.194;12.526;2023-09-18T08:52:49;22.00;99.90
18141;DHT22;9196;49.194;12.526;2023-09-18T08:55:17;22.10;99.90
18141;DHT22;9196;49.194;12.526;2023-09-18T08:57:44;22.30;99.90
18141;DHT22;9196;49.194;12.526;2023-09-18T09:00:13;22.40;99.90
18141;DHT22;9196;49.194;12.526;2023-09-18T09:02:42;22.50;99.90
18141;DHT22;9196;49.194;12.526;2023-09-18T09:05:09;22.60;99.90
18141;DHT22;9196;49.194;12.526;2023-09-18T09:07:36;22.60;99.90
18141;DHT22;9196;49.194;12.526;2023-09-18T09:10:05;22.70;99.90
18141;DHT22;9196;49.194;12.526;2023-09-18T09:12:52;22.80;99.90
18141;DHT22;9196;49.194;12.526;2023-09-18T09:15:20;22.90;99.90
18141;DHT22;9196;49.194;12.526;2023-09-18T09:17:48;22.70;99.90
18141;DHT22;9196;49.194;12.526;2023-09-18T09:20:17;22.80;99.90
18141;DHT22;9196;49.194;12.526;2023-09-18T09:22:45;22.90;99.90
18141;DHT22;9196;49.194;12.526;2023-09-18T09:25:26;23.10;99.90
18141;DHT22;9196;49.194;12.526;2023-09-18T09:27:57;23.30;99.90
18141;DHT22;9196;49.194;12.526;2023-09-18T09:30:25;23.50;99.90
18141;DHT22;9196;49.194;12.526;2023-09-18T09:32:55;23.60;99.90
18141;DHT22;9196;49.194;12.526;2023-09-18T09:35:23;23.70;99.90
18141;DHT22;9196;49.194;12.526;2023-09-18T09:37:53;23.70;99.90
18141;DHT22;9196;49.194;12.526;2023-09-18T09:40:21;23.80;99.90
18141;DHT22;9196;49.194;12.526;2023-09-18T09:42:51;23.90;99.90
18141;DHT22;9196;49.194;12.526;2023-09-18T09:45:26;23.90;99.90
18141;DHT22;9196;49.194;12.526;2023-09-18T09:47:54;23.70;99.90
18141;DHT22;9196;49.194;12.526;2023-09-18T09:50:21;23.70;99.90
18141;DHT22;9196;49.194;12.526;2023-09-18T09:52:49;23.80;99.90
18141;DHT22;9196;49.194;12.526;2023-09-18T09:55:21;24.10;99.90
18141;DHT22;9196;49.194;12.526;2023-09-18T09:57:52;24.30;99.90
18141;DHT22;9196;49.194;12.526;2023-09-18T10:00:20;24.50;99.90
18141;DHT22;9196;49.194;12.526;2023-09-18T10:03:00;24.60;99.90
18141;DHT22;9196;49.194;12.526;2023-09-18T10:05:30;24.80;99.90
18141;DHT22;9196;49.194;12.526;2023-09-18T10:08:00;24.90;99.90
18141;DHT22;9196;49.194;12.526;2023-09-18T10:10:31;25.10;99.90
18141;DHT22;9196;49.194;12.526;2023-09-18T10:13:05;25.20;99.90
18141;DHT22;9196;49.194;12.526;2023-09-18T10:15:35;25.30;99.90
18141;DHT22;9196;49.194;12.526;2023-09-18T10:18:07;25.40;99.90
18141;DHT22;9196;49.194;12.526;2023-09-18T10:20:40;25.60;99.90
18141;DHT22;9196;49.194;12.526;2023-09-18T10:23:27;25.70;99.20
18141;DHT22;9196;49.194;12.526;2023-09-18T10:25:59;25.80;98.90
18141;DHT22;9196;49.194;12.526;2023-09-18T10:28:30;25.90;98.60
18141;DHT22;9196;49.194;12.526;2023-09-18T10:30:59;25.80;98.10
18141;DHT22;9196;49.194;12.526;2023-09-18T10:33:30;25.90;99.00
18141;DHT22;9196;49.194;12.526;2023-09-18T10:35:57;26.00;98.30
18141;DHT22;9196;49.194;12.526;2023-09-18T10:38:27;26.10;97.60
18141;DHT22;9196;49.194;12.526;2023-09-18T10:40:54;26.00;98.40
18141;DHT22;9196;49.194;12.526;2023-09-18T10:43:22;26.10;98.30
18141;DHT22;9196;49.194;12.526;2023-09-18T10:45:51;26.20;98.30
18141;DHT22;9196;49.194;12.526;2023-09-18T10:48:19;26.40;97.80
18141;DHT22;9196;49.194;12.526;2023-09-18T10:50:48;26.70;97.10
18141;DHT22;9196;49.194;12.526;2023-09-18T10:53:15;26.90;96.60
18141;DHT22;9196;49.194;12.526;2023-09-18T10:55:42;27.00;95.50
18141;DHT22;9196;49.194;12.526;2023-09-18T10:58:09;27.00;95.80
18141;DHT22;9196;49.194;12.526;2023-09-18T11:00:36;27.10;95.70
18141;DHT22;9196;49.194;12.526;2023-09-18T11:03:13;27.10;95.20
18141;DHT22;9196;49.194;12.526;2023-09-18T11:05:44;26.90;94.20
18141;DHT22;9196;49.194;12.526;2023-09-18T11:08:28;27.00;95.20
18141;DHT22;9196;49.194;12.526;2023-09-18T11:10:59;26.80;96.10
18141;DHT22;9196;49.194;12.526;2023-09-18T11:13:30;26.70;95.90
18141;DHT22;9196;49.194;12.526;2023-09-18T11:16:01;26.70;95.90
18141;DHT22;9196;49.194;12.526;2023-09-18T11:18:33;26.60;95.30
18141;DHT22;9196;49.194;12.526;2023-09-18T11:21:07;26.60;96.20
18141;DHT22;9196;49.194;12.526;2023-09-18T11:23:35;26.60;96.50
18141;DHT22;9196;49.194;12.526;2023-09-18T11:26:04;26.50;96.70
18141;DHT22;9196;49.194;12.526;2023-09-18T11:28:31;26.50;96.50
18141;DHT22;9196;49.194;12.526;2023-09-18T11:30:59;26.50;96.80
18141;DHT22;9196;49.194;12.526;2023-09-18T11:33:35;26.40;96.80
18141;DHT22;9196;49.194;12.526;2023-09-18T11:36:04;26.10;96.00
18141;DHT22;9196;49.194;12.526;2023-09-18T11:38:33;26.00;96.90
18141;DHT22;9196;49.194;12.526;2023-09-18T11:43:43;26.00;97.60
18141;DHT22;9196;49.194;12.526;2023-09-18T11:46:10;26.00;97.00
18141;DHT22;9196;49.194;12.526;2023-09-18T11:48:41;26.10;97.00
18141;DHT22;9196;49.194;12.526;2023-09-18T11:51:08;26.10;97.80
18141;DHT22;9196;49.194;12.526;2023-09-18T11:53:38;26.10;96.90
18141;DHT22;9196;49.194;12.526;2023-09-18T11:56:10;26.20;96.60
18141;DHT22;9196;49.194;12.526;2023-09-18T11:58:45;26.20;97.20
18141;DHT22;9196;49.194;12.526;2023-09-18T12:01:12;26.00;97.30
18141;DHT22;9196;49.194;12.526;2023-09-18T12:03:42;25.90;98.40
18141;DHT22;9196;49.194;12.526;2023-09-18T12:06:09;26.00;98.50
18141;DHT22;9196;49.194;12.526;2023-09-18T12:08:39;26.00;98.30
18141;DHT22;9196;49.194;12.526;2023-09-18T12:11:06;26.00;98.60
18141;DHT22;9196;49.194;12.526;2023-09-18T12:13:33;26.00;98.50
18141;DHT22;9196;49.194;12.526;2023-09-18T12:16:01;26.10;98.60
18141;DHT22;9196;49.194;12.526;2023-09-18T12:18:30;26.10;98.90
18141;DHT22;9196;49.194;12.526;2023-09-18T12:21:01;26.10;98.60
18141;DHT22;9196;49.194;12.526;2023-09-18T12:23:37;26.10;98.20
18141;DHT22;9196;49.194;12.526;2023-09-18T12:26:04;26.00;98.20
18141;DHT22;9196;49.194;12.526;2023-09-18T12:28:33;25.90;98.50
18141;DHT22;9196;49.194;12.526;2023-09-18T12:31:00;25.90;98.90
18141;DHT22;9196;49.194;12.526;2023-09-18T12:33:33;25.90;98.20
18141;DHT22;9196;49.194;12.526;2023-09-18T12:36:05;26.00;99.00
18141;DHT22;9196;49.194;12.526;2023-09-18T12:38:33;26.10;99.00
18141;DHT22;9196;49.194;12.526;2023-09-18T12:41:00;26.10;98.20
18141;DHT22;9196;49.194;12.526;2023-09-18T12:43:34;26.20;97.90
18141;DHT22;9196;49.194;12.526;2023-09-18T12:46:02;26.30;99.30
18141;DHT22;9196;49.194;12.526;2023-09-18T12:48:29;26.30;98.50
18141;DHT22;9196;49.194;12.526;2023-09-18T12:51:04;26.40;98.60
18141;DHT22;9196;49.194;12.526;2023-09-18T12:53:34;26.40;98.70
18141;DHT22;9196;49.194;12.526;2023-09-18T12:56:08;26.60;98.80
18141;DHT22;9196;49.194;12.526;2023-09-18T12:58:36;26.60;98.00
18141;DHT22;9196;49.194;12.526;2023-09-18T13:01:07;26.60;98.90
18141;DHT22;9196;49.194;12.526;2023-09-18T13:03:36;26.50;96.40
18141;DHT22;9196;49.194;12.526;2023-09-18T13:06:10;26.30;96.70
18141;DHT22;9196;49.194;12.526;2023-09-18T13:08:38;26.10;96.90
18141;DHT22;9196;49.194;12.526;2023-09-18T13:11:04;26.00;97.50
18141;DHT22;9196;49.194;12.526;2023-09-18T13:13:32;26.00;97.70
18141;DHT22;9196;49.194;12.526;2023-09-18T13:16:00;25.90;97.20
18141;DHT22;9196;49.194;12.526;2023-09-18T13:18:29;25.90;97.80
18141;DHT22;9196;49.194;12.526;2023-09-18T13:20:57;25.80;98.80
18141;DHT22;9196;49.194;12.526;2023-09-18T13:23:29;25.60;99.90
18141;DHT22;9196;49.194;12.526;2023-09-18T13:26:00;25.50;99.90
18141;DHT22;9196;49.194;12.526;2023-09-18T13:28:27;25.40;99.90
18141;DHT22;9196;49.194;12.526;2023-09-18T13:30:56;25.30;99.90
18141;DHT22;9196;49.194;12.526;2023-09-18T13:33:23;25.30;99.90
18141;DHT22;9196;49.194;12.526;2023-09-18T13:35:51;25.20;99.80
18141;DHT22;9196;49.194;12.526;2023-09-18T13:38:18;25.20;99.90
18141;DHT22;9196;49.194;12.526;2023-09-18T13:40:48;25.00;99.90
18141;DHT22;9196;49.194;12.526;2023-09-18T13:43:15;25.00;99.90
18141;DHT22;9196;49.194;12.526;2023-09-18T13:45:44;25.00;99.90
18141;DHT22;9196;49.194;12.526;2023-09-18T13:48:10;24.80;99.90
18141;DHT22;9196;49.194;12.526;2023-09-18T13:50:37;24.70;99.90
18141;DHT22;9196;49.194;12.526;2023-09-18T13:53:04;24.60;99.90
18141;DHT22;9196;49.194;12.526;2023-09-18T13:55:32;24.60;99.90
18141;DHT22;9196;49.194;12.526;2023-09-18T13:58:00;24.60;99.90
18141;DHT22;9196;49.194;12.526;2023-09-18T14:00:28;24.40;99.90
18141;DHT22;9196;49.194;12.526;2023-09-18T14:02:55;24.40;99.90
18141;DHT22;9196;49.194;12.526;2023-09-18T14:05:22;24.30;99.90
18141;DHT22;9196;49.194;12.526;2023-09-18T14:07:49;24.20;99.90
18141;DHT22;9196;49.194;12.526;2023-09-18T14:10:16;24.10;99.90
18141;DHT22;9196;49.194;12.526;2023-09-18T14:12:46;24.00;99.90
18141;DHT22;9196;49.194;12.526;2023-09-18T14:15:15;24.00;99.90
18141;DHT22;9196;49.194;12.526;2023-09-18T14:17:41;23.80;99.90
18141;DHT22;9196;49.194;12.526;2023-09-18T14:20:08;23.70;99.90
18141;DHT22;9196;49.194;12.526;2023-09-18T14:22:36;23.70;99.90
18141;DHT22;9196;49.194;12.526;2023-09-18T14:25:03;23.60;99.90
18141;DHT22;9196;49.194;12.526;2023-09-18T14:27:31;23.40;99.90
18141;DHT22;9196;49.194;12.526;2023-09-18T14:29:58;23.30;99.90
18141;DHT22;9196;49.194;12.526;2023-09-18T14:32:28;23.30;99.90
18141;DHT22;9196;49.194;12.526;2023-09-18T14:34:55;23.20;99.90
18141;DHT22;9196;49.194;12.526;2023-09-18T14:37:24;23.00;99.90
18141;DHT22;9196;49.194;12.526;2023-09-18T14:39:51;22.90;99.90
18141;DHT22;9196;49.194;12.526;2023-09-18T14:42:17;22.90;99.90
18141;DHT22;9196;49.194;12.526;2023-09-18T14:44:44;22.80;99.90
18141;DHT22;9196;49.194;12.526;2023-09-18T14:47:11;22.70;99.90
18141;DHT22;9196;49.194;12.526;2023-09-18T14:49:39;22.80;99.90
18141;DHT22;9196;49.194;12.526;2023-09-18T14:52:06;22.60;99.90
18141;DHT22;9196;49.194;12.526;2023-09-18T14:54:33;22.40;99.90
18141;DHT22;9196;49.194;12.526;2023-09-18T14:57:00;22.10;99.90
18141;DHT22;9196;49.194;12.526;2023-09-18T14:59:27;22.00;99.90
18141;DHT22;9196;49.194;12.526;2023-09-18T15:01:53;21.90;99.90
18141;DHT22;9196;49.194;12.526;2023-09-18T15:04:20;21.80;99.90
18141;DHT22;9196;49.194;12.526;2023-09-18T15:06:49;21.60;99.90
18141;DHT22;9196;49.194;12.526;2023-09-18T15:09:35;21.60;99.90
18141;DHT22;9196;49.194;12.526;2023-09-18T15:12:02;21.40;99.90
18141;DHT22;9196;49.194;12.526;2023-09-18T15:14:29;21.30;99.90
18141;DHT22;9196;49.194;12.526;2023-09-18T15:16:57;21.10;99.90
18141;DHT22;9196;49.194;12.526;2023-09-18T15:19:24;21.00;99.90
18141;DHT22;9196;49.194;12.526;2023-09-18T15:21:52;20.90;99.90
18141;DHT22;9196;49.194;12.526;2023-09-18T15:24:21;20.80;99.90
18141;DHT22;9196;49.194;12.526;2023-09-18T15:26:47;20.60;99.90
18141;DHT22;9196;49.194;12.526;2023-09-18T15:29:14;20.50;99.90
18141;DHT22;9196;49.194;12.526;2023-09-18T15:31:42;20.50;99.90
18141;DHT22;9196;49.194;12.526;2023-09-18T15:34:09;20.40;99.90
18141;DHT22;9196;49.194;12.526;2023-09-18T15:36:35;20.40;99.90
18141;DHT22;9196;49.194;12.526;2023-09-18T15:39:04;20.30;99.90